Time;durP1;ratioP1;P1;durP2;ratioP2;P2;SDS_P1;SDS_P2;PMS_P1;PMS_P2;Temp;Humidity;BMP_temperature;BMP_pressure;BME280_temperature;BME280_humidity;BME280_pressure;Samples;Min_cycle;Max_cycle;Signal;HPM_P1;HPM_P2
2023/01/15 03:02:24;;;;;;;15.50;8.60;;;;;;;3.26;75.78;99208.60;103260;1251;96162;-70
2023/01/15 03:04:56;;;;;;;13.30;8.10;;;;;;;3.22;75.76;99210.89;103204;1253;113022;-70
2023/01/15 03:07:31;;;;;;;13.80;8.60;;;;;;;3.21;75.47;99215.53;103377;1256;107988;-71
2023/01/15 03:09:59;;;;;;;14.80;8.00;;;;;;;3.22;75.55;99193.02;103336;1256;138232;-71
2023/01/15 03:13:01;;;;;;;15.00;8.50;;;;;;;3.23;75.27;99210.35;102615;1253;1003146;-70
2023/01/15 03:18:13;;;;;;;15.40;8.10;;;;;;;3.27;75.23;99179.88;103351;1253;110796;-70
2023/01/15 03:20:50;;;;;;;14.30;8.30;;;;;;;3.27;75.21;99185.71;103240;1256;138705;-70
2023/01/15 03:23:20;;;;;;;14.30;8.80;;;;;;;3.27;75.28;99180.91;103243;1253;97768;-70
2023/01/15 03:25:50;;;;;;;15.00;8.20;;;;;;;3.27;75.29;99188.14;103299;1253;107024;-72
2023/01/15 03:28:22;;;;;;;14.80;8.60;;;;;;;3.28;75.47;99178.15;103250;1253;138147;-69
2023/01/15 03:30:50;;;;;;;14.20;8.50;;;;;;;3.27;75.42;99201.00;103414;1253;112345;-71
2023/01/15 03:33:18;;;;;;;16.40;8.50;;;;;;;3.27;75.47;99165.27;103199;1256;138199;-70
2023/01/15 03:35:52;;;;;;;12.40;8.10;;;;;;;3.27;75.33;99164.41;103317;1256;98338;-70
2023/01/15 03:38:35;;;;;;;16.70;9.10;;;;;;;3.27;75.25;99150.16;102664;1253;1003603;-70
2023/01/15 03:41:17;;;;;;;18.00;8.90;;;;;;;3.26;75.04;99156.71;103384;1259;98004;-70
2023/01/15 03:44:02;;;;;;;14.90;9.00;;;;;;;3.26;75.26;99155.17;103383;1253;110152;-71
2023/01/15 03:46:40;;;;;;;14.70;8.80;;;;;;;3.26;74.63;99153.46;102403;1259;1003622;-70
2023/01/15 03:49:18;;;;;;;18.60;9.60;;;;;;;3.28;75.04;99160.61;103403;1256;97788;-71
2023/01/15 03:51:55;;;;;;;16.00;9.50;;;;;;;3.27;75.19;99143.98;103212;1253;138149;-70
2023/01/15 03:54:29;;;;;;;15.50;8.50;;;;;;;3.27;75.17;99155.66;103233;1258;97891;-70
2023/01/15 03:57:03;;;;;;;17.40;8.60;;;;;;;3.26;74.99;99149.14;103090;1253;139445;-71
2023/01/15 03:59:37;;;;;;;15.00;8.90;;;;;;;3.27;74.82;99145.88;103328;1256;107124;-71
2023/01/15 04:02:08;;;;;;;14.60;8.80;;;;;;;3.28;74.76;99124.71;103358;1253;98302;-72
2023/01/15 04:04:36;;;;;;;14.50;8.90;;;;;;;3.27;75.12;99114.95;103178;1257;138462;-69
2023/01/15 04:07:06;;;;;;;16.00;9.50;;;;;;;3.25;75.13;99138.18;103325;1257;97770;-71
2023/01/15 04:09:39;;;;;;;15.00;9.60;;;;;;;3.24;75.21;99136.98;103206;1253;140180;-70
2023/01/15 04:12:11;;;;;;;14.00;8.60;;;;;;;3.22;75.11;99112.98;103294;1258;107320;-71
2023/01/15 04:14:42;;;;;;;14.00;8.40;;;;;;;3.22;75.30;99104.21;103273;1259;139191;-70
2023/01/15 04:17:15;;;;;;;15.40;8.90;;;;;;;3.21;75.29;99108.86;103320;1253;107760;-70
2023/01/15 04:19:43;;;;;;;14.60;9.00;;;;;;;3.19;75.49;99104.10;103424;1259;97796;-70
2023/01/15 04:22:11;;;;;;;16.70;9.60;;;;;;;3.20;75.41;99093.95;103273;1259;138916;-69
2023/01/15 04:24:38;;;;;;;16.30;9.60;;;;;;;3.19;75.34;99080.91;102543;1253;1003446;-71
2023/01/15 04:27:05;;;;;;;17.70;9.20;;;;;;;3.18;75.38;99098.11;102443;1259;1002484;-70
2023/01/15 04:29:32;;;;;;;13.10;8.30;;;;;;;3.16;75.41;99062.78;103401;1253;109081;-70
2023/01/15 04:32:00;;;;;;;15.70;8.50;;;;;;;3.15;75.42;99049.56;103171;1259;97951;-69
2023/01/15 04:34:29;;;;;;;14.70;9.00;;;;;;;3.14;75.53;99054.05;103307;1253;138058;-71
2023/01/15 04:36:57;;;;;;;12.90;7.50;;;;;;;3.15;75.43;99035.49;103359;1256;106765;-70
2023/01/15 04:39:24;;;;;;;12.10;7.90;;;;;;;3.14;75.39;99043.58;103304;1256;138696;-70
2023/01/15 04:44:38;;;;;;;12.50;7.90;;;;;;;3.13;75.36;99036.21;102471;1256;1003029;-70
2023/01/15 04:47:06;;;;;;;13.80;7.70;;;;;;;3.13;75.25;99039.48;103308;1256;110979;-71
2023/01/15 04:49:33;;;;;;;13.00;7.50;;;;;;;3.14;75.50;99027.61;103317;1256;106936;-70
2023/01/15 04:52:01;;;;;;;10.40;6.70;;;;;;;3.17;75.26;99027.38;103244;1253;139264;-70
2023/01/15 04:54:29;;;;;;;13.30;7.20;;;;;;;3.18;75.07;99031.80;103348;1259;109454;-70
2023/01/15 04:56:56;;;;;;;13.50;7.20;;;;;;;3.20;75.02;99030.73;103290;1254;138283;-70
2023/01/15 04:59:27;;;;;;;11.80;6.60;;;;;;;3.22;74.73;99016.77;103405;1253;110810;-71
2023/01/15 05:01:56;;;;;;;10.90;6.50;;;;;;;3.24;74.96;99025.52;103355;1253;107683;-70
2023/01/15 05:04:33;;;;;;;9.90;6.20;;;;;;;3.26;74.72;99014.48;103304;1253;138159;-70
2023/01/15 05:07:00;;;;;;;10.60;6.40;;;;;;;3.29;74.63;99006.16;103336;1253;107305;-71
2023/01/15 05:09:27;;;;;;;10.60;6.70;;;;;;;3.31;74.49;99029.98;103264;1253;138069;-70
2023/01/15 05:11:54;;;;;;;10.30;6.30;;;;;;;3.34;74.46;99001.23;103347;1254;110701;-70
2023/01/15 05:14:22;;;;;;;11.00;6.60;;;;;;;3.37;74.52;99003.05;103294;1256;107034;-70
2023/01/15 05:16:48;;;;;;;11.30;5.80;;;;;;;3.39;74.02;99019.66;103238;1253;138011;-70
2023/01/15 05:19:16;;;;;;;8.40;5.20;;;;;;;3.42;73.72;99006.36;103299;1256;108432;-70
2023/01/15 05:21:45;;;;;;;11.50;6.10;;;;;;;3.46;73.54;98987.55;103271;1253;138673;-70
2023/01/15 05:24:15;;;;;;;11.10;5.50;;;;;;;3.49;73.53;99008.43;103374;1253;111078;-70
2023/01/15 05:26:42;;;;;;;9.20;5.50;;;;;;;3.52;73.37;98985.33;103209;1253;139655;-70
2023/01/15 05:29:10;;;;;;;9.80;5.50;;;;;;;3.55;73.43;98997.96;103284;1259;98340;-70
2023/01/15 05:31:37;;;;;;;8.70;5.60;;;;;;;3.58;72.75;99010.11;103304;1253;107471;-70
2023/01/15 05:34:05;;;;;;;8.50;5.30;;;;;;;3.61;72.63;98995.27;103157;1256;139381;-70
2023/01/15 05:36:34;;;;;;;7.50;4.50;;;;;;;3.64;72.48;99002.76;103347;1257;110117;-70
2023/01/15 05:39:01;;;;;;;8.30;5.00;;;;;;;3.67;72.19;99002.35;103167;1254;138088;-70
2023/01/15 05:44:27;;;;;;;9.70;4.60;;;;;;;3.72;71.86;98998.43;102827;1262;107739;-70
2023/01/15 05:46:56;;;;;;;6.40;4.40;;;;;;;3.75;71.96;98983.91;103025;1260;98166;-71
2023/01/15 05:49:25;;;;;;;7.00;4.70;;;;;;;3.78;71.53;99013.44;103014;1260;110179;-71
2023/01/15 05:51:53;;;;;;;7.70;4.50;;;;;;;3.80;71.73;98993.61;102077;1261;1015744;-70
2023/01/15 05:54:22;;;;;;;9.00;4.50;;;;;;;3.83;71.26;99000.08;102968;1260;99496;-70
2023/01/15 05:56:50;;;;;;;8.00;4.50;;;;;;;3.85;71.21;98988.83;102156;1259;1003100;-71
2023/01/15 05:59:18;;;;;;;8.50;4.70;;;;;;;3.86;71.64;98983.48;102986;1259;98082;-72
2023/01/15 06:01:46;;;;;;;6.30;4.30;;;;;;;3.86;71.36;98983.30;103027;1261;111269;-70
2023/01/15 06:04:14;;;;;;;8.00;4.40;;;;;;;3.86;71.47;98976.94;102819;1262;138387;-70
2023/01/15 06:06:42;;;;;;;7.40;4.40;;;;;;;3.86;71.61;98985.03;102996;1258;98005;-70
2023/01/15 06:09:10;;;;;;;6.40;4.20;;;;;;;3.85;71.47;98971.48;102154;1260;1002959;-70
2023/01/15 06:11:37;;;;;;;6.30;3.80;;;;;;;3.84;72.02;98961.34;103051;1257;97911;-69
2023/01/15 06:14:04;;;;;;;7.40;3.60;;;;;;;3.83;73.06;98958.28;103022;1260;111724;-71
2023/01/15 06:16:32;;;;;;;5.70;4.00;;;;;;;3.78;73.33;98949.11;102938;1259;138070;-70
2023/01/15 06:19:03;;;;;;;7.00;4.30;;;;;;;3.74;74.04;98941.65;103130;1257;98325;-70
2023/01/15 06:21:30;;;;;;;5.10;3.80;;;;;;;3.69;74.14;98938.36;103160;1257;137752;-70
2023/01/15 06:23:57;;;;;;;5.40;3.60;;;;;;;3.63;74.67;98937.98;103346;1254;97843;-70
2023/01/15 06:26:25;;;;;;;4.80;3.70;;;;;;;3.58;74.98;98922.13;102617;1254;1004053;-71
2023/01/15 06:28:52;;;;;;;6.20;4.10;;;;;;;3.52;75.36;98934.63;103195;1259;137947;-70
2023/01/15 06:31:22;;;;;;;5.30;3.40;;;;;;;3.50;75.32;98944.49;102587;1256;1002923;-71
2023/01/15 06:33:49;;;;;;;5.10;3.40;;;;;;;3.48;75.60;98930.61;103160;1257;138147;-70
2023/01/15 06:36:20;;;;;;;5.40;3.60;;;;;;;3.47;75.53;98943.54;102526;1256;1003393;-71
2023/01/15 06:38:48;;;;;;;6.20;3.90;;;;;;;3.47;75.19;98935.96;102559;1254;1003663;-71
2023/01/15 06:49:36;;;;;;;6.40;3.90;;;;;;;3.49;76.24;98947.95;103383;1259;96554;-71
2023/01/15 06:52:04;;;;;;;6.20;4.00;;;;;;;3.46;76.90;98933.43;103283;1254;137795;-72
2023/01/15 06:54:31;;;;;;;7.30;3.70;;;;;;;3.41;77.39;98933.02;103295;1254;107655;-71
2023/01/15 06:56:59;;;;;;;7.80;3.90;;;;;;;3.35;77.91;98924.06;103150;1253;138189;-71
2023/01/15 06:59:26;;;;;;;6.80;3.80;;;;;;;3.29;78.70;98933.83;103323;1258;109144;-72
2023/01/15 07:01:53;;;;;;;7.70;3.60;;;;;;;3.24;79.17;98932.23;103284;1260;98477;-71
2023/01/15 07:04:21;;;;;;;9.80;3.70;;;;;;;3.17;79.90;98925.18;103202;1254;137890;-72
2023/01/15 07:06:48;;;;;;;8.80;4.10;;;;;;;3.11;80.34;98921.36;103296;1253;106590;-71
2023/01/15 07:09:15;;;;;;;6.60;4.00;;;;;;;3.05;81.05;98919.61;103291;1256;138070;-71
2023/01/15 07:11:49;;;;;;;5.00;3.30;;;;;;;3.01;81.91;98910.94;103354;1254;106900;-71
2023/01/15 07:14:16;;;;;;;6.70;4.30;;;;;;;2.96;82.07;98900.58;103298;1253;97777;-71
2023/01/15 07:16:44;;;;;;;5.40;3.50;;;;;;;2.96;82.50;98903.70;103183;1254;138870;-71
2023/01/15 07:19:11;;;;;;;5.70;4.00;;;;;;;2.96;82.80;98915.20;103262;1258;107187;-71
2023/01/15 07:21:39;;;;;;;5.90;3.70;;;;;;;2.96;82.99;98924.46;103223;1254;138935;-70
2023/01/15 07:24:07;;;;;;;5.00;3.70;;;;;;;2.97;83.09;98917.23;103352;1256;109765;-70
2023/01/15 07:26:35;;;;;;;8.40;3.50;;;;;;;2.99;83.16;98917.01;103478;1257;138203;-71
2023/01/15 07:29:02;;;;;;;4.70;3.30;;;;;;;2.99;83.51;98907.89;103355;1254;111571;-70
2023/01/15 07:31:29;;;;;;;5.60;3.60;;;;;;;3.00;83.23;98902.03;103247;1254;106941;-71
2023/01/15 07:33:57;;;;;;;6.10;3.60;;;;;;;3.01;83.58;98883.11;103590;1254;138051;-71
2023/01/15 07:36:25;;;;;;;6.10;3.70;;;;;;;3.02;83.59;98889.98;103325;1254;109683;-70
2023/01/15 07:38:52;;;;;;;5.40;3.60;;;;;;;3.03;83.75;98894.21;103429;1254;138160;-71
2023/01/15 07:49:45;;;;;;;5.80;3.60;;;;;;;3.15;83.91;98878.17;102872;1261;107547;-70
2023/01/15 07:52:12;;;;;;;5.40;3.50;;;;;;;3.17;83.96;98879.83;102778;1261;138002;-70
2023/01/15 07:54:39;;;;;;;5.70;3.60;;;;;;;3.19;83.99;98881.67;102907;1262;110493;-70
2023/01/15 07:57:07;;;;;;;6.80;4.10;;;;;;;3.20;84.04;98882.66;102785;1259;139389;-70
2023/01/15 07:59:34;;;;;;;5.70;3.60;;;;;;;3.23;83.80;98894.46;102934;1262;97814;-70
2023/01/15 08:02:01;;;;;;;7.10;3.90;;;;;;;3.28;84.14;98877.34;102868;1262;107210;-70
2023/01/15 08:04:29;;;;;;;7.10;3.50;;;;;;;3.31;84.00;98883.27;102737;1262;139222;-70
2023/01/15 08:06:56;;;;;;;9.20;4.50;;;;;;;3.33;84.35;98880.47;102816;1262;111104;-70
2023/01/15 08:09:24;;;;;;;6.20;3.50;;;;;;;3.36;84.35;98887.45;102676;1258;138620;-70
2023/01/15 08:17:23;;;;;;;4.80;3.50;;;;;;;3.49;84.33;98883.00;102437;1264;98140;-70
2023/01/15 08:19:51;;;;;;;6.90;3.60;;;;;;;3.52;84.59;98880.34;102458;1267;112043;-70
2023/01/15 08:22:18;;;;;;;6.20;3.70;;;;;;;3.55;84.97;98869.61;102386;1268;138507;-71
2023/01/15 08:24:45;;;;;;;6.00;3.50;;;;;;;3.57;85.31;98874.36;102634;1264;97734;-70
2023/01/15 08:27:13;;;;;;;5.20;3.60;;;;;;;3.59;85.35;98880.68;102526;1265;138143;-71
2023/01/15 08:29:41;;;;;;;5.80;3.50;;;;;;;3.60;85.71;98866.58;102769;1266;97810;-70
2023/01/15 08:32:08;;;;;;;5.10;3.70;;;;;;;3.60;86.00;98864.83;102809;1264;112551;-70
2023/01/15 08:34:36;;;;;;;6.20;3.80;;;;;;;3.62;86.08;98861.89;101077;1261;1003534;-72
2023/01/15 08:37:03;;;;;;;6.40;3.90;;;;;;;3.62;86.50;98862.56;102746;1265;97788;-72
2023/01/15 08:39:30;;;;;;;6.40;3.90;;;;;;;3.62;86.50;98867.52;102725;1264;139086;-71
2023/01/15 08:41:58;;;;;;;7.20;4.20;;;;;;;3.63;86.71;98862.01;102029;1266;1003496;-72
2023/01/15 08:44:25;;;;;;;5.90;3.60;;;;;;;3.66;86.85;98855.25;102971;1261;111465;-71
2023/01/15 08:46:53;;;;;;;6.50;3.50;;;;;;;3.68;86.88;98849.16;102798;1263;138209;-70
2023/01/15 08:49:21;;;;;;;6.70;3.80;;;;;;;3.70;86.56;98853.23;102892;1264;97841;-71
2023/01/15 08:51:50;;;;;;;6.40;3.60;;;;;;;3.72;86.83;98859.02;102730;1257;138071;-71
2023/01/15 08:54:23;;;;;;;6.00;3.40;;;;;;;3.74;86.81;98848.98;103553;1254;97779;-72
2023/01/15 08:56:50;;;;;;;7.40;3.70;;;;;;;3.77;87.18;98852.19;103198;1258;138539;-70
2023/01/15 08:59:18;;;;;;;6.60;3.40;;;;;;;3.79;86.88;98845.60;103366;1254;106953;-71
2023/01/15 09:01:45;;;;;;;6.80;3.90;;;;;;;3.82;86.88;98850.34;103124;1254;98344;-72
2023/01/15 09:04:15;;;;;;;8.30;4.10;;;;;;;3.83;87.00;98852.39;103248;1257;138143;-71
2023/01/15 09:06:43;;;;;;;7.70;4.30;;;;;;;3.85;87.26;98853.69;103393;1254;97809;-71
2023/01/15 09:09:10;;;;;;;7.50;4.30;;;;;;;3.87;87.37;98842.45;103271;1256;138251;-72
2023/01/15 09:11:40;;;;;;;6.70;4.20;;;;;;;3.88;87.59;98844.98;103250;1255;107197;-71
2023/01/15 09:14:07;;;;;;;10.10;4.50;;;;;;;3.89;87.44;98850.45;103441;1257;97806;-71
2023/01/15 09:16:53;;;;;;;;;;;;;;;3.89;88.05;98844.80;103448;1254;107780;-71
2023/01/15 09:19:20;;;;;;;6.60;4.00;;;;;;;3.88;87.89;98845.18;103403;1254;99393;-71
2023/01/15 09:21:47;;;;;;;8.20;4.60;;;;;;;3.88;87.92;98846.55;103215;1257;138347;-70
2023/01/15 09:24:15;;;;;;;7.60;4.30;;;;;;;3.88;87.90;98841.20;103267;1258;107981;-71
2023/01/15 09:26:42;;;;;;;7.40;4.10;;;;;;;3.89;88.32;98845.66;103082;1257;138557;-71
2023/01/15 09:29:10;;;;;;;5.60;3.40;;;;;;;3.89;88.46;98828.28;103346;1255;107369;-70
2023/01/15 09:31:37;;;;;;;7.00;3.80;;;;;;;3.89;88.33;98833.27;103263;1254;97806;-71
2023/01/15 09:34:04;;;;;;;7.10;4.40;;;;;;;3.88;88.81;98819.05;103217;1255;137919;-71
2023/01/15 09:36:34;;;;;;;9.50;4.40;;;;;;;3.88;89.27;98831.95;103315;1257;105831;-70
2023/01/15 09:39:02;;;;;;;8.20;4.00;;;;;;;3.86;89.94;98821.51;102387;1254;1002958;-70
2023/01/15 09:44:37;;;;;;;7.20;4.30;;;;;;;3.86;90.64;98828.05;103206;1254;97932;-71
2023/01/15 09:47:11;;;;;;;7.40;4.00;;;;;;;3.85;90.69;98822.56;103274;1257;110863;-70
2023/01/15 09:49:56;;;;;;;7.70;4.30;;;;;;;3.82;91.14;98813.19;103753;1253;108801;-72
2023/01/15 09:52:33;;;;;;;7.00;4.30;;;;;;;3.82;91.49;98827.30;102996;1254;1003367;-70
2023/01/15 09:55:09;;;;;;;7.50;4.20;;;;;;;3.80;92.32;98812.39;104139;1254;107353;-71
2023/01/15 09:57:37;;;;;;;7.10;4.10;;;;;;;3.79;92.38;98820.33;103463;1254;139129;-70
2023/01/15 10:00:07;;;;;;;7.00;4.20;;;;;;;3.81;91.56;98817.71;103338;1257;111673;-69
2023/01/15 10:02:46;;;;;;;7.20;4.20;;;;;;;3.81;91.75;98806.70;104432;1253;138088;-72
2023/01/15 10:05:22;;;;;;;7.80;4.50;;;;;;;3.82;91.63;98805.14;103450;1254;98341;-69
2023/01/15 10:07:56;;;;;;;6.50;4.20;;;;;;;3.82;91.52;98802.71;103730;1253;108237;-70
2023/01/15 10:10:28;;;;;;;8.10;4.10;;;;;;;3.83;91.37;98803.71;102701;1257;1002713;-71
2023/01/15 10:13:02;;;;;;;9.70;4.70;;;;;;;3.83;91.79;98797.70;103779;1254;112542;-71
2023/01/15 10:15:36;;;;;;;6.40;4.20;;;;;;;3.83;91.99;98805.42;103249;1257;139180;-70
2023/01/15 10:18:06;;;;;;;9.70;4.70;;;;;;;3.84;92.28;98797.67;103388;1257;97797;-71
2023/01/15 10:21:02;;;;;;;7.20;4.10;;;;;;;3.86;92.14;98785.92;103219;1256;107733;-70
2023/01/15 10:23:42;;;;;;;7.80;4.30;;;;;;;3.85;91.82;98781.80;103577;1254;98500;-71
2023/01/15 10:26:18;;;;;;;8.30;4.50;;;;;;;3.87;92.04;98790.69;103223;1254;110548;-73
2023/01/15 10:29:02;;;;;;;8.10;4.60;;;;;;;3.89;91.93;98782.04;102758;1257;1002793;-73
2023/01/15 10:31:51;;;;;;;8.30;4.30;;;;;;;3.92;92.01;98775.23;103314;1254;97803;-72
2023/01/15 10:34:57;;;;;;;7.40;4.50;;;;;;;3.96;91.93;98780.99;103373;1254;137821;-72
2023/01/15 10:37:31;;;;;;;9.90;4.70;;;;;;;4.00;91.92;98776.08;103353;1254;98601;-72
2023/01/15 10:40:17;;;;;;;8.00;4.80;;;;;;;4.03;91.90;98778.73;103150;1254;137739;-71
2023/01/15 10:42:57;;;;;;;10.90;4.60;;;;;;;4.06;91.88;98768.30;103067;1261;107346;-72
2023/01/15 10:45:27;;;;;;;9.00;5.00;;;;;;;4.09;91.74;98765.82;102406;1254;1002989;-71
2023/01/15 10:48:00;;;;;;;8.00;4.80;;;;;;;4.12;91.37;98765.38;103296;1254;106814;-73
2023/01/15 10:50:28;;;;;;;11.70;5.20;;;;;;;4.15;91.66;98764.61;103272;1256;97757;-72
2023/01/15 10:53:07;;;;;;;12.10;5.30;;;;;;;4.18;91.38;98762.77;103193;1256;137882;-72
2023/01/15 10:55:39;;;;;;;9.10;5.00;;;;;;;4.22;91.85;98753.20;102336;1253;1002999;-72
2023/01/15 10:58:16;;;;;;;8.70;5.20;;;;;;;4.24;91.53;98756.25;103198;1257;138133;-72
2023/01/15 11:00:52;;;;;;;9.10;4.80;;;;;;;4.28;91.14;98756.28;103303;1254;107277;-72
2023/01/15 11:03:24;;;;;;;8.40;4.70;;;;;;;4.32;91.26;98747.58;103263;1257;138200;-73
2023/01/15 11:05:51;;;;;;;8.30;5.30;;;;;;;4.35;91.27;98743.70;103268;1254;111465;-72
2023/01/15 11:08:26;;;;;;;8.80;5.20;;;;;;;4.37;91.35;98743.48;102455;1257;1003533;-74
2023/01/15 11:19:40;;;;;;;7.40;4.50;;;;;;;4.44;90.41;98747.69;103289;1254;110421;-73
2023/01/15 11:22:11;;;;;;;7.80;4.30;;;;;;;4.49;90.15;98740.17;103177;1257;138288;-72
2023/01/15 11:24:46;;;;;;;8.20;4.70;;;;;;;4.52;89.56;98735.78;103342;1254;98331;-71
2023/01/15 11:27:18;;;;;;;7.90;5.00;;;;;;;4.55;89.76;98737.73;103127;1257;138215;-72
2023/01/15 11:29:50;;;;;;;9.10;5.20;;;;;;;4.59;89.59;98735.70;103283;1257;97799;-75
2023/01/15 11:32:28;;;;;;;11.20;5.00;;;;;;;4.61;89.80;98737.02;102518;1254;1003504;-74
2023/01/15 11:34:57;;;;;;;8.40;5.10;;;;;;;4.63;89.32;98732.12;103159;1257;138539;-72
2023/01/15 11:37:26;;;;;;;8.00;4.70;;;;;;;4.66;89.29;98724.62;103420;1254;97828;-73
2023/01/15 11:40:02;;;;;;;8.00;5.00;;;;;;;4.67;89.26;98730.10;103190;1257;137790;-73
2023/01/15 11:51:08;;;;;;;10.40;4.80;;;;;;;4.68;89.87;98717.00;103118;1257;139831;-73
2023/01/15 11:53:39;;;;;;;9.80;5.60;;;;;;;4.70;89.64;98722.78;103130;1258;109614;-76
2023/01/15 11:56:11;;;;;;;9.00;5.50;;;;;;;4.72;89.63;98713.06;103265;1257;97780;-74
2023/01/15 11:58:44;;;;;;;11.10;5.70;;;;;;;4.74;89.68;98714.91;103218;1254;139458;-74
2023/01/15 12:01:15;;;;;;;10.80;5.90;;;;;;;4.75;89.56;98714.88;103070;1254;106814;-71
2023/01/15 12:03:44;;;;;;;8.70;5.70;;;;;;;4.74;89.66;98704.04;102471;1253;1002843;-78
2023/01/15 12:06:16;;;;;;;11.40;6.40;;;;;;;4.74;89.69;98701.81;103212;1257;109850;-67
2023/01/15 12:08:50;;;;;;;9.70;5.80;;;;;;;4.75;89.49;98705.92;102575;1257;1005368;-70
2023/01/15 12:11:39;;;;;;;10.00;5.90;;;;;;;4.77;89.14;98702.25;103316;1254;110651;-75
2023/01/15 12:14:45;;;;;;;10.50;5.80;;;;;;;4.79;89.03;98714.02;102331;1257;1015267;-77
2023/01/15 12:17:29;;;;;;;9.80;5.30;;;;;;;4.83;88.44;98703.58;103192;1254;97668;-77
2023/01/15 12:20:10;;;;;;;10.60;5.50;;;;;;;4.89;88.10;98702.19;103167;1254;108477;-78
2023/01/15 12:22:54;;;;;;;9.80;5.90;;;;;;;4.92;88.10;98696.05;103067;1253;138343;-77
2023/01/15 12:25:30;;;;;;;12.00;5.20;;;;;;;4.95;87.90;98701.28;103302;1254;111043;-77
2023/01/15 12:28:02;;;;;;;9.20;4.90;;;;;;;4.97;87.48;98695.50;103102;1258;138167;-79
2023/01/15 12:30:38;;;;;;;8.30;5.40;;;;;;;5.01;87.07;98693.14;102733;1253;1003015;-81
2023/01/15 12:33:17;;;;;;;9.10;5.60;;;;;;;5.05;86.38;98697.85;103011;1253;138326;-81
2023/01/15 12:35:49;;;;;;;11.60;5.70;;;;;;;5.11;86.41;98702.30;103422;1254;97873;-81
2023/01/15 12:38:21;;;;;;;9.80;5.20;;;;;;;5.12;86.00;98705.00;103545;1253;109846;-81
2023/01/15 12:40:52;;;;;;;11.20;4.90;;;;;;;5.17;85.52;98696.20;103258;1254;138621;-80
2023/01/15 12:46:14;;;;;;;8.00;4.80;;;;;;;5.30;83.93;98704.88;104612;1253;137818;-82
2023/01/15 12:48:50;;;;;;;8.60;4.90;;;;;;;5.37;83.37;98699.27;103772;1253;97077;-81
2023/01/15 12:51:22;;;;;;;9.60;5.30;;;;;;;5.44;82.55;98698.36;103215;1254;136832;-80
2023/01/15 12:53:56;;;;;;;9.40;4.80;;;;;;;5.51;82.26;98705.52;104718;1253;107350;-81
2023/01/15 12:56:28;;;;;;;6.60;4.00;;;;;;;5.56;82.27;98696.01;104848;1253;96002;-82
2023/01/15 12:59:04;;;;;;;7.10;4.00;;;;;;;5.61;81.58;98700.14;103931;1252;1002366;-82
2023/01/15 13:01:36;;;;;;;7.90;4.40;;;;;;;5.67;80.78;98693.36;104090;1253;97777;-82
2023/01/15 13:04:17;;;;;;;7.30;4.50;;;;;;;5.73;80.97;98697.80;103603;1257;138681;-82
2023/01/15 13:06:49;;;;;;;7.30;4.10;;;;;;;5.78;80.11;98696.92;103350;1253;107177;-84
2023/01/15 13:09:26;;;;;;;9.40;4.50;;;;;;;5.83;79.96;98701.92;103371;1253;139221;-81
2023/01/15 13:11:54;;;;;;;7.20;4.40;;;;;;;5.89;79.11;98693.77;103401;1254;108708;-82
2023/01/15 13:14:23;;;;;;;7.30;4.50;;;;;;;5.92;78.37;98696.77;103505;1254;97790;-81
2023/01/15 13:16:59;;;;;;;6.20;3.80;;;;;;;5.96;78.12;98704.73;103409;1253;138209;-81
2023/01/15 13:19:40;;;;;;;8.20;4.80;;;;;;;6.02;77.41;98701.39;103478;1257;108465;-82
2023/01/15 13:22:14;;;;;;;7.70;4.20;;;;;;;6.06;77.70;98707.62;103882;1253;137991;-83
2023/01/15 13:25:05;;;;;;;9.80;4.90;;;;;;;6.10;76.96;98700.94;103536;1254;108728;-83
2023/01/15 13:27:49;;;;;;;7.80;4.70;;;;;;;6.13;76.41;98701.33;102608;1253;1015619;-83
2023/01/15 13:30:30;;;;;;;7.70;4.40;;;;;;;6.16;77.09;98702.92;103881;1253;110757;-82
2023/01/15 13:33:07;;;;;;;6.20;4.20;;;;;;;6.18;76.17;98707.16;103366;1253;140338;-81
2023/01/15 13:36:08;;;;;;;8.20;4.10;;;;;;;6.21;74.65;98709.80;103491;1253;96913;-82
2023/01/15 13:39:00;;;;;;;7.40;4.50;;;;;;;6.25;75.37;98715.51;103320;1256;107734;-80
2023/01/15 13:45:40;;;;;;;7.50;4.50;;;;;;;6.28;74.64;98711.42;103289;1259;138161;-81
2023/01/15 13:48:25;;;;;;;9.20;4.80;;;;;;;6.30;74.55;98703.59;103268;1256;108156;-80
2023/01/15 13:50:57;;;;;;;7.60;4.00;;;;;;;6.32;73.87;98712.16;103628;1254;97841;-80
2023/01/15 13:53:30;;;;;;;8.20;4.30;;;;;;;6.34;73.27;98712.04;103507;1257;107703;-79
2023/01/15 13:56:01;;;;;;;7.80;5.00;;;;;;;6.38;73.23;98705.88;103771;1254;97791;-79
2023/01/15 13:58:31;;;;;;;8.00;4.40;;;;;;;6.39;73.76;98710.14;103494;1254;139910;-79
2023/01/15 14:01:23;;;;;;;9.20;4.90;;;;;;;6.39;73.41;98711.16;103321;1253;107752;-79
2023/01/15 14:04:00;;;;;;;6.20;4.30;;;;;;;6.41;71.89;98712.13;103882;1253;138174;-79
2023/01/15 14:06:38;;;;;;;9.10;4.70;;;;;;;6.44;72.42;98717.02;103783;1254;107113;-79
2023/01/15 14:09:05;;;;;;;8.40;4.60;;;;;;;6.46;72.14;98721.42;103417;1253;138376;-79
2023/01/15 14:11:45;;;;;;;9.80;4.30;;;;;;;6.45;72.41;98721.98;103470;1252;112534;-79
2023/01/15 14:14:29;;;;;;;8.10;4.80;;;;;;;6.48;72.72;98724.13;103384;1254;107771;-79
2023/01/15 14:17:06;;;;;;;7.90;4.60;;;;;;;6.48;72.44;98733.77;103281;1253;139585;-77
2023/01/15 14:19:52;;;;;;;7.40;4.30;;;;;;;6.49;72.62;98740.11;103342;1257;247731;-79
2023/01/15 14:22:36;;;;;;;8.00;4.50;;;;;;;6.51;72.12;98741.08;103555;1253;138076;-80
2023/01/15 14:25:19;;;;;;;8.90;5.00;;;;;;;6.52;72.26;98748.66;102499;1254;1003384;-80
2023/01/15 14:28:01;;;;;;;10.40;4.80;;;;;;;6.52;72.25;98747.41;103205;1253;139074;-79
2023/01/15 14:30:52;;;;;;;9.10;5.30;;;;;;;6.52;72.20;98749.13;103514;1253;97852;-79
2023/01/15 14:33:33;;;;;;;12.60;4.80;;;;;;;6.54;72.20;98758.23;103347;1253;138817;-78
2023/01/15 14:36:16;;;;;;;8.10;4.50;;;;;;;6.54;71.41;98750.96;103462;1253;97731;-79
2023/01/15 14:38:51;;;;;;;10.50;4.50;;;;;;;6.56;71.90;98757.95;103696;1253;110186;-80
2023/01/15 14:41:28;;;;;;;8.20;4.40;;;;;;;6.58;71.17;98747.35;103285;1253;138091;-77
2023/01/15 14:43:54;;;;;;;;;;;;;;;6.60;71.25;98747.95;103423;1254;97777;-77
2023/01/15 14:46:29;;;;;;;10.40;5.00;;;;;;;6.60;71.50;98751.05;103272;1257;124248;-77
2023/01/15 14:48:56;;;;;;;8.40;5.00;;;;;;;6.60;72.21;98754.15;103754;1254;97813;-77
2023/01/15 14:51:28;;;;;;;9.40;4.90;;;;;;;6.61;71.98;98739.80;103265;1257;139236;-77
2023/01/15 14:53:58;;;;;;;6.70;4.20;;;;;;;6.62;71.75;98739.42;103584;1253;107301;-78
2023/01/15 14:56:32;;;;;;;8.90;4.60;;;;;;;6.63;71.52;98745.27;103493;1253;97806;-78
2023/01/15 14:59:04;;;;;;;7.10;4.40;;;;;;;6.64;70.76;98742.97;103267;1254;137807;-77
2023/01/15 15:01:39;;;;;;;8.90;4.60;;;;;;;6.63;71.84;98744.19;103427;1253;97811;-77
2023/01/15 15:04:15;;;;;;;8.90;4.80;;;;;;;6.63;71.68;98734.35;102895;1253;1002871;-77
2023/01/15 15:06:49;;;;;;;6.80;4.60;;;;;;;6.63;71.61;98724.50;103229;1257;107903;-79
2023/01/15 15:09:30;;;;;;;7.70;4.30;;;;;;;6.65;71.64;98738.61;103240;1253;138283;-76
2023/01/15 15:12:20;;;;;;;8.60;4.90;;;;;;;6.66;71.25;98733.39;103618;1254;107936;-78
2023/01/15 15:14:51;;;;;;;9.20;5.00;;;;;;;6.69;70.97;98728.27;103362;1254;97849;-76
2023/01/15 15:17:26;;;;;;;7.60;4.60;;;;;;;6.71;70.83;98729.41;103256;1254;138756;-77
2023/01/15 15:20:02;;;;;;;9.10;5.10;;;;;;;6.74;70.76;98727.73;103356;1253;106944;-79
2023/01/15 15:22:33;;;;;;;8.10;5.00;;;;;;;6.75;70.28;98725.59;103342;1253;138044;-77
2023/01/15 15:25:08;;;;;;;11.50;5.30;;;;;;;6.77;70.49;98724.48;103484;1253;108526;-76
2023/01/15 15:27:36;;;;;;;8.40;4.90;;;;;;;6.79;70.72;98730.80;104152;1254;139295;-79
2023/01/15 15:30:12;;;;;;;7.60;4.80;;;;;;;6.81;70.26;98728.99;103545;1257;111398;-77
2023/01/15 15:32:41;;;;;;;10.80;5.00;;;;;;;6.82;70.37;98727.73;103519;1253;106703;-77
2023/01/15 15:35:24;;;;;;;8.30;4.60;;;;;;;6.83;70.78;98726.68;103304;1253;138262;-78
2023/01/15 15:37:52;;;;;;;9.20;5.20;;;;;;;6.83;70.79;98718.54;103383;1257;107061;-78
2023/01/15 15:40:23;;;;;;;7.30;5.10;;;;;;;6.85;70.28;98729.52;103331;1253;137937;-79
2023/01/15 15:48:41;;;;;;;7.70;5.00;;;;;;;6.88;70.12;98724.38;103325;1253;97756;-78
2023/01/15 15:51:27;;;;;;;9.40;4.90;;;;;;;6.89;70.04;98707.77;103234;1253;137951;-76
2023/01/15 15:54:04;;;;;;;11.80;5.40;;;;;;;6.89;70.62;98709.16;103352;1253;97796;-78